Time;durP1;ratioP1;P1;durP2;ratioP2;P2;SDS_P1;SDS_P2;PMS_P1;PMS_P2;Temp;Humidity;BMP_temperature;BMP_pressure;BME280_temperature;BME280_humidity;BME280_pressure;Samples;Min_cycle;Max_cycle;Signal;HPM_P1;HPM_P2
2022/12/10 00:01:05;;;;;;;69.65;39.97;;;;;;;;;;5073203;28;20511;-73
2022/12/10 00:03:32;;;;;;;71.15;41.97;;;;;;;;;;5074190;28;20028;-73
2022/12/10 00:06:02;;;;;;;61.42;36.95;;;;;;;;;;5072897;28;20038;-73
2022/12/10 00:08:28;;;;;;;296.33;121.82;;;;;;;;;;5073670;28;20032;-73
2022/12/10 00:10:55;;;;;;;173.98;71.78;;;;;;;;;;5074054;28;20055;-73
2022/12/10 00:13:21;;;;;;;70.43;38.20;;;;;;;;;;5073937;28;20031;-73
2022/12/10 00:15:47;;;;;;;64.57;37.28;;;;;;;;;;5089805;28;20025;-73
2022/12/10 00:18:14;;;;;;;63.28;35.10;;;;;;;;;;5073904;28;20031;-73
2022/12/10 00:20:40;;;;;;;57.42;31.27;;;;;;;;;;5073713;28;20524;-74
2022/12/10 00:23:07;;;;;;;47.00;26.98;;;;;;;;;;5073333;28;20058;-74
2022/12/10 00:25:33;;;;;;;49.08;26.90;;;;;;;;;;5073800;28;20039;-73
2022/12/10 00:27:59;;;;;;;45.25;25.35;;;;;;;;;;5073832;28;20028;-73
2022/12/10 00:30:26;;;;;;;49.38;25.42;;;;;;;;;;5073749;28;20035;-73
2022/12/10 00:32:52;;;;;;;39.88;24.65;;;;;;;;;;5073481;28;20035;-73
2022/12/10 00:35:18;;;;;;;42.40;23.65;;;;;;;;;;5073462;28;20032;-73
2022/12/10 00:37:45;;;;;;;56.95;27.45;;;;;;;;;;5073234;28;20040;-73
2022/12/10 00:40:11;;;;;;;37.00;19.70;;;;;;;;;;5073500;28;20024;-74
2022/12/10 00:42:37;;;;;;;29.05;16.50;;;;;;;;;;5072875;28;20040;-74
2022/12/10 00:45:04;;;;;;;25.38;14.73;;;;;;;;;;5073297;28;20029;-73
2022/12/10 00:47:30;;;;;;;22.85;14.35;;;;;;;;;;5073368;28;20024;-73
2022/12/10 00:49:57;;;;;;;112.93;42.38;;;;;;;;;;5073492;28;20028;-74
2022/12/10 00:52:23;;;;;;;38.85;20.60;;;;;;;;;;5072847;28;20021;-73
2022/12/10 00:54:49;;;;;;;108.28;38.58;;;;;;;;;;5073083;28;20021;-73
2022/12/10 00:57:16;;;;;;;52.67;24.33;;;;;;;;;;5072992;28;20028;-73
2022/12/10 00:59:42;;;;;;;30.50;17.70;;;;;;;;;;5073144;28;20042;-74
2022/12/10 01:02:09;;;;;;;357.73;102.85;;;;;;;;;;5073150;28;20028;-74
2022/12/10 01:04:35;;;;;;;128.68;45.13;;;;;;;;;;5072815;28;20042;-74
2022/12/10 01:07:01;;;;;;;68.72;28.52;;;;;;;;;;5072887;28;20036;-73
2022/12/10 01:09:29;;;;;;;46.00;22.25;;;;;;;;;;5072897;28;20028;-73
2022/12/10 01:11:56;;;;;;;39.85;19.85;;;;;;;;;;5073155;28;20025;-74
2022/12/10 01:14:27;;;;;;;44.10;23.52;;;;;;;;;;5072716;28;20508;-74
2022/12/10 01:16:54;;;;;;;40.83;23.13;;;;;;;;;;5072667;28;20029;-74
2022/12/10 01:19:21;;;;;;;33.00;21.30;;;;;;;;;;5072642;28;20500;-73
2022/12/10 01:21:50;;;;;;;45.08;23.88;;;;;;;;;;5072165;28;20033;-73
2022/12/10 01:24:17;;;;;;;44.00;21.20;;;;;;;;;;5072576;28;20486;-73
2022/12/10 01:26:43;;;;;;;36.53;19.25;;;;;;;;;;5072430;28;20428;-74
2022/12/10 01:29:11;;;;;;;34.20;19.15;;;;;;;;;;5072373;28;20474;-73
2022/12/10 01:31:37;;;;;;;34.53;20.50;;;;;;;;;;5072520;28;20028;-74
2022/12/10 01:34:05;;;;;;;34.63;21.55;;;;;;;;;;5072451;28;20074;-73
2022/12/10 01:36:36;;;;;;;41.80;21.38;;;;;;;;;;5072116;28;20089;-74
2022/12/10 01:39:04;;;;;;;24.67;15.65;;;;;;;;;;5072606;28;20032;-74
2022/12/10 01:41:31;;;;;;;24.27;15.48;;;;;;;;;;5072323;28;20012;-73
2022/12/10 01:44:02;;;;;;;22.40;14.02;;;;;;;;;;5072349;28;20036;-74
2022/12/10 01:46:30;;;;;;;25.65;15.30;;;;;;;;;;5072231;28;20021;-74
2022/12/10 01:48:57;;;;;;;22.15;14.35;;;;;;;;;;5072505;28;20024;-74
2022/12/10 01:51:24;;;;;;;27.77;15.60;;;;;;;;;;5072158;28;20020;-74
2022/12/10 01:53:51;;;;;;;24.17;15.57;;;;;;;;;;5071850;28;20478;-74
2022/12/10 01:56:18;;;;;;;23.33;15.43;;;;;;;;;;5071629;28;20400;-73
2022/12/10 01:58:45;;;;;;;26.40;15.18;;;;;;;;;;5072361;28;20032;-74
2022/12/10 02:01:16;;;;;;;23.77;15.38;;;;;;;;;;5072093;28;20400;-73
2022/12/10 02:03:43;;;;;;;;;;;;;;;;;;5072462;28;20033;-73
2022/12/10 02:06:18;;;;;;;28.17;16.85;;;;;;;;;;5071696;28;19908;-74
2022/12/10 02:08:52;;;;;;;26.08;16.92;;;;;;;;;;5072014;28;20021;-74
2022/12/10 02:11:22;;;;;;;33.03;17.83;;;;;;;;;;5071851;28;20025;-74
2022/12/10 02:14:12;;;;;;;38.38;17.00;;;;;;;;;;5071929;28;20047;-74
2022/12/10 02:16:40;;;;;;;94.55;28.50;;;;;;;;;;5071799;28;20477;-74
2022/12/10 02:19:15;;;;;;;37.45;15.90;;;;;;;;;;5071673;28;20024;-74
2022/12/10 02:21:43;;;;;;;54.70;20.65;;;;;;;;;;5071878;28;20542;-74
2022/12/10 02:24:12;;;;;;;44.92;19.88;;;;;;;;;;5071758;28;20039;-74
2022/12/10 02:26:38;;;;;;;36.75;17.52;;;;;;;;;;5071741;28;20021;-74
2022/12/10 02:29:28;;;;;;;15.82;8.68;;;;;;;;;;5072030;28;20550;-74
2022/12/10 02:31:57;;;;;;;17.35;10.00;;;;;;;;;;5064036;28;20037;-74
2022/12/10 02:34:25;;;;;;;16.05;10.45;;;;;;;;;;5071820;28;20017;-74
2022/12/10 02:36:53;;;;;;;15.43;10.38;;;;;;;;;;5071786;28;20043;-73
2022/12/10 02:39:24;;;;;;;20.08;11.07;;;;;;;;;;5071746;28;20023;-74
2022/12/10 02:41:52;;;;;;;19.77;11.38;;;;;;;;;;5071957;28;20032;-73
2022/12/10 02:44:20;;;;;;;18.63;11.93;;;;;;;;;;5071632;28;20386;-73
2022/12/10 02:46:48;;;;;;;19.52;12.55;;;;;;;;;;5071536;28;20474;-73
2022/12/10 02:49:15;;;;;;;20.50;13.32;;;;;;;;;;5071161;28;20040;-74
2022/12/10 02:51:41;;;;;;;13.90;9.43;;;;;;;;;;5071591;28;20086;-74
2022/12/10 02:54:28;;;;;;;10.73;7.45;;;;;;;;;;5071625;28;20028;-73
2022/12/10 02:57:01;;;;;;;6.63;4.45;;;;;;;;;;5087402;28;20028;-73
2022/12/10 02:59:37;;;;;;;5.78;3.15;;;;;;;;;;5071550;28;20025;-73
2022/12/10 03:02:21;;;;;;;2.97;2.38;;;;;;;;;;5071491;28;20496;-74
2022/12/10 03:05:06;;;;;;;2.97;2.55;;;;;;;;;;5071335;28;20028;-74
2022/12/10 03:07:37;;;;;;;3.47;2.88;;;;;;;;;;5075019;28;20412;-74
2022/12/10 03:10:07;;;;;;;4.10;2.90;;;;;;;;;;5075255;28;20027;-73
2022/12/10 03:12:38;;;;;;;3.78;3.05;;;;;;;;;;5075208;28;20035;-73
2022/12/10 03:15:07;;;;;;;4.35;3.60;;;;;;;;;;5075098;28;20031;-74
2022/12/10 03:17:34;;;;;;;6.05;3.60;;;;;;;;;;5074760;28;20485;-74
2022/12/10 03:20:02;;;;;;;5.53;3.42;;;;;;;;;;5075105;28;20035;-74
2022/12/10 03:22:29;;;;;;;3.67;3.10;;;;;;;;;;5074682;28;20037;-74
2022/12/10 03:24:56;;;;;;;4.38;2.95;;;;;;;;;;5074941;28;20025;-74
2022/12/10 03:27:24;;;;;;;3.85;2.83;;;;;;;;;;5074881;28;20028;-73
2022/12/10 03:29:55;;;;;;;3.22;2.60;;;;;;;;;;5074791;28;20028;-73
2022/12/10 03:32:21;;;;;;;;;;;;;;;;;;5074978;28;20489;-74
2022/12/10 03:34:48;;;;;;;3.72;2.58;;;;;;;;;;5074713;28;19911;-74
2022/12/10 03:37:15;;;;;;;4.85;3.20;;;;;;;;;;5074614;28;20519;-74
2022/12/10 03:39:42;;;;;;;5.10;3.42;;;;;;;;;;5075069;28;20033;-74
2022/12/10 03:42:08;;;;;;;4.85;3.22;;;;;;;;;;5074801;28;20032;-74
2022/12/10 03:44:35;;;;;;;4.82;3.30;;;;;;;;;;5074446;28;20044;-74
2022/12/10 03:47:03;;;;;;;3.80;3.15;;;;;;;;;;5074420;28;20021;-74
2022/12/10 03:49:29;;;;;;;8.48;3.45;;;;;;;;;;5074781;28;20028;-73
2022/12/10 03:51:55;;;;;;;4.82;3.40;;;;;;;;;;5074545;28;20027;-74
2022/12/10 03:54:22;;;;;;;5.30;3.75;;;;;;;;;;5074437;28;20477;-74
2022/12/10 03:56:48;;;;;;;5.40;3.88;;;;;;;;;;5074374;28;20396;-74
2022/12/10 03:59:15;;;;;;;7.22;4.35;;;;;;;;;;5074559;28;20029;-73
2022/12/10 04:01:42;;;;;;;5.57;4.18;;;;;;;;;;5073944;28;20037;-73
2022/12/10 04:04:09;;;;;;;6.00;4.53;;;;;;;;;;5074000;28;20040;-73
2022/12/10 04:06:37;;;;;;;6.00;4.43;;;;;;;;;;5074135;28;20028;-74
2022/12/10 04:09:04;;;;;;;4.93;4.00;;;;;;;;;;5074193;28;20027;-74
2022/12/10 04:11:30;;;;;;;6.18;5.00;;;;;;;;;;5074299;28;20024;-73
2022/12/10 04:16:52;;;;;;;5.00;4.18;;;;;;;;;;5031101;28;20042;-73
2022/12/10 04:19:18;;;;;;;6.78;4.40;;;;;;;;;;5031484;28;20033;-73
2022/12/10 04:27:18;;;;;;;6.63;4.75;;;;;;;;;;5031634;28;20511;-73
2022/12/10 04:29:44;;;;;;;6.50;4.78;;;;;;;;;;5031302;28;20039;-73
2022/12/10 04:32:11;;;;;;;7.18;4.80;;;;;;;;;;5031481;28;20036;-74
2022/12/10 04:34:37;;;;;;;6.47;4.85;;;;;;;;;;5031328;28;20494;-73
2022/12/10 04:37:04;;;;;;;6.63;4.50;;;;;;;;;;5031379;28;20095;-73
2022/12/10 04:39:30;;;;;;;7.00;4.90;;;;;;;;;;5031313;28;20441;-73
2022/12/10 04:41:57;;;;;;;5.22;4.13;;;;;;;;;;5019881;28;20038;-74
2022/12/10 04:44:23;;;;;;;8.27;5.00;;;;;;;;;;5011178;28;20511;-74
2022/12/10 04:46:49;;;;;;;5.13;4.32;;;;;;;;;;5011579;28;20045;-74
2022/12/10 04:49:16;;;;;;;6.93;4.35;;;;;;;;;;5011313;28;20029;-73
2022/12/10 04:51:42;;;;;;;6.75;5.13;;;;;;;;;;5011815;28;20037;-74
2022/12/10 04:54:09;;;;;;;7.47;5.15;;;;;;;;;;5047782;28;20397;-73
2022/12/10 04:56:35;;;;;;;7.25;5.28;;;;;;;;;;5053075;28;20017;-74
2022/12/10 04:59:02;;;;;;;6.57;5.00;;;;;;;;;;5052906;28;20031;-73
2022/12/10 05:01:29;;;;;;;6.45;4.70;;;;;;;;;;5052998;28;20013;-73
2022/12/10 05:03:58;;;;;;;7.38;5.35;;;;;;;;;;5052753;28;20037;-72
2022/12/10 05:06:24;;;;;;;7.00;4.60;;;;;;;;;;5053061;28;20478;-73
2022/12/10 05:08:50;;;;;;;6.22;4.45;;;;;;;;;;5052960;28;20076;-73
2022/12/10 05:11:18;;;;;;;7.88;4.63;;;;;;;;;;5052726;28;20028;-73
2022/12/10 05:13:44;;;;;;;8.88;4.55;;;;;;;;;;5052562;28;20023;-73
2022/12/10 05:16:11;;;;;;;8.98;4.82;;;;;;;;;;5053073;28;20039;-73
2022/12/10 05:18:37;;;;;;;6.35;4.10;;;;;;;;;;5052708;28;20013;-73
2022/12/10 05:21:08;;;;;;;5.60;4.35;;;;;;;;;;5055382;28;20028;-73
2022/12/10 05:23:38;;;;;;;6.88;4.60;;;;;;;;;;5072682;28;20048;-73
2022/12/10 05:26:06;;;;;;;8.17;5.00;;;;;;;;;;5071594;28;20024;-72
2022/12/10 05:28:36;;;;;;;5.05;4.00;;;;;;;;;;5072185;28;20032;-72
2022/12/10 05:31:03;;;;;;;6.38;4.50;;;;;;;;;;5072474;28;20499;-73
2022/12/10 05:33:29;;;;;;;5.45;3.85;;;;;;;;;;5072482;28;20020;-73
2022/12/10 05:36:00;;;;;;;6.53;4.90;;;;;;;;;;5072232;28;20035;-73
2022/12/10 05:38:27;;;;;;;;;;;;;;;;;;5072707;28;20513;-74
2022/12/10 05:40:53;;;;;;;5.78;4.25;;;;;;;;;;5072362;28;20021;-72
2022/12/10 05:43:19;;;;;;;8.95;5.97;;;;;;;;;;5072201;28;20033;-73
2022/12/10 05:45:46;;;;;;;11.90;8.98;;;;;;;;;;5072290;28;20400;-73
2022/12/10 05:48:13;;;;;;;13.07;6.70;;;;;;;;;;5072498;28;20043;-73
2022/12/10 05:50:39;;;;;;;7.57;5.68;;;;;;;;;;5072581;28;20021;-73
2022/12/10 05:53:06;;;;;;;8.63;5.75;;;;;;;;;;5072094;28;20028;-73
2022/12/10 05:55:32;;;;;;;6.30;4.68;;;;;;;;;;5072138;28;20035;-73
2022/12/10 05:58:02;;;;;;;6.32;4.90;;;;;;;;;;5071772;28;20024;-73
2022/12/10 06:00:28;;;;;;;8.38;5.05;;;;;;;;;;5072035;28;20023;-73
2022/12/10 06:02:55;;;;;;;6.55;4.53;;;;;;;;;;5072005;28;20028;-73
2022/12/10 06:05:21;;;;;;;6.90;4.47;;;;;;;;;;5072057;28;20017;-73
2022/12/10 06:07:47;;;;;;;6.72;4.80;;;;;;;;;;5072043;28;20025;-73
2022/12/10 06:10:14;;;;;;;5.95;4.65;;;;;;;;;;5072388;28;20029;-73
2022/12/10 06:12:40;;;;;;;8.32;4.70;;;;;;;;;;5071581;28;20477;-73
2022/12/10 06:15:07;;;;;;;7.47;4.47;;;;;;;;;;5071894;28;20039;-73
2022/12/10 06:17:33;;;;;;;6.35;4.32;;;;;;;;;;5071964;28;20517;-73
2022/12/10 06:19:59;;;;;;;6.85;4.78;;;;;;;;;;5071770;28;20025;-73
2022/12/10 06:22:26;;;;;;;9.40;5.07;;;;;;;;;;5072243;28;20039;-74
2022/12/10 06:24:52;;;;;;;6.65;4.65;;;;;;;;;;5071802;28;20557;-74
2022/12/10 06:27:18;;;;;;;9.05;4.45;;;;;;;;;;5071711;28;20025;-73
2022/12/10 06:29:45;;;;;;;6.47;4.88;;;;;;;;;;5072018;28;20485;-73
2022/12/10 06:32:11;;;;;;;9.98;6.38;;;;;;;;;;5072080;28;20024;-74
2022/12/10 06:34:38;;;;;;;8.00;5.40;;;;;;;;;;5071652;28;20042;-73
2022/12/10 06:37:04;;;;;;;7.50;4.63;;;;;;;;;;5071880;28;20048;-73
2022/12/10 06:39:30;;;;;;;8.85;5.55;;;;;;;;;;5071786;28;20035;-73
2022/12/10 06:41:56;;;;;;;10.27;6.63;;;;;;;;;;5074030;28;20043;-73
2022/12/10 06:44:23;;;;;;;13.65;8.25;;;;;;;;;;5075643;28;20401;-73
2022/12/10 06:46:49;;;;;;;11.82;7.28;;;;;;;;;;5075700;28;20042;-74
2022/12/10 06:49:15;;;;;;;6.80;4.75;;;;;;;;;;5075603;28;20089;-73
2022/12/10 06:51:42;;;;;;;6.95;4.30;;;;;;;;;;5075566;28;20474;-73
2022/12/10 06:54:08;;;;;;;7.80;4.75;;;;;;;;;;5074152;28;20040;-74
2022/12/10 06:56:34;;;;;;;7.93;4.90;;;;;;;;;;5074889;28;20016;-73
2022/12/10 06:59:04;;;;;;;7.57;4.50;;;;;;;;;;5075497;28;20029;-73
2022/12/10 07:01:30;;;;;;;6.28;4.13;;;;;;;;;;5075397;28;20064;-73
2022/12/10 07:03:57;;;;;;;6.85;4.50;;;;;;;;;;5075404;28;20033;-73
2022/12/10 07:06:24;;;;;;;5.38;3.75;;;;;;;;;;5075449;28;20028;-74
2022/12/10 07:08:51;;;;;;;6.72;3.85;;;;;;;;;;5074897;28;20485;-73
2022/12/10 07:11:19;;;;;;;5.15;3.40;;;;;;;;;;5075118;28;20017;-74
2022/12/10 07:13:46;;;;;;;4.72;3.55;;;;;;;;;;5075077;28;20025;-74
2022/12/10 07:16:25;;;;;;;7.45;3.47;;;;;;;;;;5075286;28;20043;-74
2022/12/10 07:18:52;;;;;;;4.20;3.00;;;;;;;;;;5075327;28;20028;-73
2022/12/10 07:21:22;;;;;;;5.88;4.15;;;;;;;;;;5075057;28;20028;-73
2022/12/10 07:23:49;;;;;;;4.82;3.42;;;;;;;;;;5074530;28;20485;-73
2022/12/10 07:26:15;;;;;;;4.95;3.83;;;;;;;;;;5074825;28;20110;-73
2022/12/10 07:28:41;;;;;;;7.03;4.35;;;;;;;;;;5074811;28;20024;-73
2022/12/10 07:31:09;;;;;;;5.88;4.10;;;;;;;;;;5074816;28;20031;-74
2022/12/10 07:33:36;;;;;;;5.13;3.60;;;;;;;;;;5074910;28;20507;-73
2022/12/10 07:36:09;;;;;;;5.45;3.53;;;;;;;;;;5074691;28;20028;-73
2022/12/10 07:38:36;;;;;;;6.13;3.97;;;;;;;;;;5074205;28;20051;-74
2022/12/10 07:41:06;;;;;;;8.55;4.43;;;;;;;;;;5074630;28;20499;-73
2022/12/10 07:43:36;;;;;;;10.48;4.40;;;;;;;;;;5075216;28;20039;-73
2022/12/10 07:46:05;;;;;;;8.05;4.55;;;;;;;;;;5074761;28;20505;-73
2022/12/10 07:48:32;;;;;;;8.13;5.18;;;;;;;;;;5074734;28;20031;-73
2022/12/10 07:50:58;;;;;;;7.38;4.35;;;;;;;;;;5074343;28;20017;-73
2022/12/10 07:53:24;;;;;;;9.00;4.80;;;;;;;;;;5072751;28;20029;-73
2022/12/10 07:55:51;;;;;;;7.72;5.07;;;;;;;;;;5074379;28;20031;-73
2022/12/10 07:58:17;;;;;;;11.73;4.88;;;;;;;;;;5074306;28;20033;-73
2022/12/10 08:00:44;;;;;;;8.43;5.30;;;;;;;;;;5074186;28;20028;-73
2022/12/10 08:03:10;;;;;;;8.75;5.35;;;;;;;;;;5074702;28;20081;-73
2022/12/10 08:05:36;;;;;;;13.50;6.00;;;;;;;;;;5074282;28;20024;-73
2022/12/10 08:08:03;;;;;;;14.57;7.47;;;;;;;;;;5073983;28;20039;-73
2022/12/10 08:10:29;;;;;;;29.90;14.68;;;;;;;;;;5074473;28;20153;-73
2022/12/10 08:12:55;;;;;;;13.10;7.82;;;;;;;;;;5074059;28;20547;-73
2022/12/10 08:15:22;;;;;;;23.42;12.65;;;;;;;;;;5073891;28;20046;-73
2022/12/10 08:17:48;;;;;;;20.77;11.18;;;;;;;;;;5074184;28;20024;-73
2022/12/10 08:20:14;;;;;;;14.98;8.45;;;;;;;;;;5074105;28;20029;-73
2022/12/10 08:22:40;;;;;;;12.60;6.55;;;;;;;;;;5073450;28;20023;-73
2022/12/10 08:25:07;;;;;;;10.50;7.05;;;;;;;;;;5071927;28;20047;-73
2022/12/10 08:27:33;;;;;;;19.38;10.02;;;;;;;;;;5072318;28;20389;-73
2022/12/10 08:30:00;;;;;;;8.32;5.75;;;;;;;;;;5073233;28;20043;-74
2022/12/10 08:32:26;;;;;;;10.57;6.43;;;;;;;;;;5073834;28;20025;-74
2022/12/10 08:34:52;;;;;;;15.43;7.65;;;;;;;;;;5073452;28;20024;-73
2022/12/10 08:37:18;;;;;;;18.67;8.20;;;;;;;;;;5073231;28;20043;-73
2022/12/10 08:39:45;;;;;;;11.38;5.57;;;;;;;;;;5073791;28;20028;-73
2022/12/10 08:42:11;;;;;;;7.05;5.50;;;;;;;;;;5073604;28;20027;-73
2022/12/10 08:44:37;;;;;;;8.70;5.88;;;;;;;;;;5073211;28;20025;-73
2022/12/10 08:47:04;;;;;;;7.60;5.40;;;;;;;;;;5073455;28;20031;-73
2022/12/10 08:49:30;;;;;;;8.90;5.90;;;;;;;;;;5073284;28;20336;-73
2022/12/10 08:51:56;;;;;;;8.77;6.15;;;;;;;;;;5072924;28;20020;-74
2022/12/10 08:54:23;;;;;;;8.43;6.28;;;;;;;;;;5073648;28;20035;-74
2022/12/10 08:56:49;;;;;;;8.85;6.35;;;;;;;;;;5071799;28;20489;-73
2022/12/10 08:59:15;;;;;;;7.70;5.78;;;;;;;;;;5072990;28;20021;-74
2022/12/10 09:01:42;;;;;;;7.80;5.93;;;;;;;;;;5073140;28;20021;-74
2022/12/10 09:04:08;;;;;;;8.90;5.95;;;;;;;;;;5072568;28;20040;-73
2022/12/10 09:06:34;;;;;;;9.80;5.82;;;;;;;;;;5073252;28;20021;-74
2022/12/10 09:09:01;;;;;;;10.40;6.68;;;;;;;;;;5073265;28;20020;-73
2022/12/10 09:11:29;;;;;;;9.25;6.40;;;;;;;;;;5072783;28;20032;-73
2022/12/10 09:13:55;;;;;;;9.23;6.05;;;;;;;;;;5073107;28;20024;-73
2022/12/10 09:16:22;;;;;;;8.75;6.28;;;;;;;;;;5072897;28;20512;-74
2022/12/10 09:18:48;;;;;;;10.15;6.88;;;;;;;;;;5073145;28;20023;-73
2022/12/10 09:21:16;;;;;;;10.77;7.03;;;;;;;;;;5072233;28;20016;-74
2022/12/10 09:23:42;;;;;;;10.07;6.70;;;;;;;;;;5072599;28;20024;-73
2022/12/10 09:26:10;;;;;;;10.75;6.63;;;;;;;;;;5072633;28;20035;-73
2022/12/10 09:28:37;;;;;;;12.52;7.53;;;;;;;;;;5072569;28;20021;-74
2022/12/10 09:31:04;;;;;;;14.98;8.05;;;;;;;;;;5072585;28;20027;-73
2022/12/10 09:33:30;;;;;;;10.30;6.70;;;;;;;;;;5072611;28;20055;-73
2022/12/10 09:35:57;;;;;;;10.00;6.50;;;;;;;;;;5072294;28;20029;-73
2022/12/10 09:38:23;;;;;;;12.52;7.53;;;;;;;;;;5071825;28;20125;-73
2022/12/10 09:41:13;;;;;;;13.80;8.18;;;;;;;;;;5072212;28;20059;-73
2022/12/10 09:43:46;;;;;;;10.85;7.20;;;;;;;;;;5066988;28;20053;-73
2022/12/10 09:46:31;;;;;;;23.17;12.68;;;;;;;;;;5072247;28;20527;-73
2022/12/10 09:49:16;;;;;;;12.73;7.97;;;;;;;;;;5071863;28;20089;-73
2022/12/10 09:51:42;;;;;;;10.63;7.00;;;;;;;;;;5072198;28;20032;-73
2022/12/10 09:54:30;;;;;;;14.25;9.02;;;;;;;;;;5072399;28;20032;-73
2022/12/10 09:56:57;;;;;;;11.80;7.20;;;;;;;;;;5072261;28;20028;-73
2022/12/10 09:59:24;;;;;;;12.32;7.50;;;;;;;;;;5072390;28;20021;-73
2022/12/10 10:01:57;;;;;;;10.60;6.43;;;;;;;;;;5072160;28;20025;-73
2022/12/10 10:04:24;;;;;;;13.15;6.82;;;;;;;;;;5071678;28;20125;-74
2022/12/10 10:06:50;;;;;;;9.00;5.75;;;;;;;;;;5072348;28;20021;-73
2022/12/10 10:09:18;;;;;;;8.68;6.15;;;;;;;;;;5072160;28;20025;-73
2022/12/10 10:11:45;;;;;;;11.25;7.28;;;;;;;;;;5070701;28;20029;-74
2022/12/10 10:14:14;;;;;;;12.00;6.38;;;;;;;;;;5071932;28;20030;-73
2022/12/10 10:16:41;;;;;;;10.23;6.68;;;;;;;;;;5071151;28;20031;-73
2022/12/10 10:19:15;;;;;;;16.25;7.40;;;;;;;;;;5070329;28;20385;-73
2022/12/10 10:21:43;;;;;;;10.77;6.95;;;;;;;;;;5071886;28;20017;-73
2022/12/10 10:24:13;;;;;;;12.93;7.68;;;;;;;;;;5071428;28;20491;-73
2022/12/10 10:26:40;;;;;;;11.52;6.82;;;;;;;;;;5071919;28;20025;-73
2022/12/10 10:29:08;;;;;;;10.57;6.72;;;;;;;;;;5071919;28;20392;-73
2022/12/10 10:31:35;;;;;;;10.93;6.28;;;;;;;;;;5072143;28;20029;-73
2022/12/10 10:34:06;;;;;;;13.10;7.68;;;;;;;;;;5071411;28;20023;-73
2022/12/10 10:36:34;;;;;;;14.75;8.65;;;;;;;;;;5071491;28;20042;-73
2022/12/10 10:39:11;;;;;;;11.38;7.05;;;;;;;;;;5071874;28;20034;-73
2022/12/10 10:41:39;;;;;;;11.38;7.32;;;;;;;;;;5071622;28;20477;-73
2022/12/10 10:44:12;;;;;;;10.82;7.32;;;;;;;;;;5071850;28;20039;-73
2022/12/10 10:46:39;;;;;;;9.27;6.03;;;;;;;;;;5071332;28;20027;-73
2022/12/10 10:49:24;;;;;;;11.52;6.88;;;;;;;;;;5071903;28;20025;-73
2022/12/10 10:51:51;;;;;;;12.00;6.90;;;;;;;;;;5071642;28;20025;-73
2022/12/10 10:54:36;;;;;;;15.15;7.40;;;;;;;;;;5071579;28;20025;-74
2022/12/10 10:57:05;;;;;;;11.55;7.35;;;;;;;;;;5071685;28;20024;-73
2022/12/10 10:59:35;;;;;;;12.52;7.57;;;;;;;;;;5071712;28;20032;-74
2022/12/10 11:02:15;;;;;;;13.15;7.60;;;;;;;;;;5071204;28;20023;-73
2022/12/10 11:04:52;;;;;;;13.38;7.32;;;;;;;;;;5071686;28;20086;-73
2022/12/10 11:07:25;;;;;;;13.20;8.07;;;;;;;;;;5071548;28;20017;-73
2022/12/10 11:09:52;;;;;;;12.15;7.60;;;;;;;;;;5071347;28;20025;-73
2022/12/10 11:12:29;;;;;;;11.80;7.22;;;;;;;;;;5071762;28;20037;-74
2022/12/10 11:14:56;;;;;;;13.77;7.13;;;;;;;;;;5071407;28;20024;-73
2022/12/10 11:17:23;;;;;;;13.38;7.68;;;;;;;;;;5071090;28;20498;-73
2022/12/10 11:19:53;;;;;;;12.15;7.20;;;;;;;;;;5071713;28;20031;-73
2022/12/10 11:22:23;;;;;;;12.73;7.35;;;;;;;;;;5071236;28;20082;-73
2022/12/10 11:24:50;;;;;;;11.80;6.85;;;;;;;;;;5071333;28;20062;-73
2022/12/10 11:27:40;;;;;;;13.90;8.18;;;;;;;;;;5072699;28;20020;-73
2022/12/10 11:30:09;;;;;;;13.48;7.68;;;;;;;;;;5066708;28;20055;-73
2022/12/10 11:32:45;;;;;;;13.43;7.63;;;;;;;;;;5074826;28;20035;-73
2022/12/10 11:35:14;;;;;;;13.35;8.23;;;;;;;;;;5074798;28;20017;-73
2022/12/10 11:37:48;;;;;;;12.80;6.90;;;;;;;;;;5074540;28;20443;-73
2022/12/10 11:40:31;;;;;;;11.38;7.22;;;;;;;;;;5075038;28;20041;-73
2022/12/10 11:42:57;;;;;;;12.02;7.30;;;;;;;;;;5074586;28;20028;-73
2022/12/10 11:45:27;;;;;;;12.77;7.45;;;;;;;;;;5089781;28;20397;-74
2022/12/10 11:47:53;;;;;;;12.40;6.97;;;;;;;;;;5074642;28;20035;-73
2022/12/10 11:50:29;;;;;;;14.40;8.40;;;;;;;;;;5074457;28;20027;-74
2022/12/10 11:53:01;;;;;;;15.65;8.80;;;;;;;;;;5074519;28;20027;-73
2022/12/10 11:55:28;;;;;;;18.05;8.80;;;;;;;;;;5074292;28;20491;-73
2022/12/10 11:57:57;;;;;;;17.52;9.20;;;;;;;;;;5074374;28;20047;-73
2022/12/10 12:00:28;;;;;;;13.40;8.35;;;;;;;;;;5074360;28;20021;-73
2022/12/10 12:03:13;;;;;;;14.07;8.57;;;;;;;;;;5074206;28;20389;-73
2022/12/10 12:05:39;;;;;;;13.63;7.80;;;;;;;;;;5073248;28;20043;-73
2022/12/10 12:08:05;;;;;;;12.75;7.43;;;;;;;;;;5074151;28;20017;-73
2022/12/10 12:10:58;;;;;;;11.57;7.63;;;;;;;;;;5074449;28;20035;-74
2022/12/10 12:13:41;;;;;;;12.95;7.53;;;;;;;;;;5073587;28;20599;-73
2022/12/10 12:16:13;;;;;;;12.88;7.55;;;;;;;;;;5074297;28;20032;-73
2022/12/10 12:18:43;;;;;;;10.30;5.93;;;;;;;;;;5073878;28;20016;-73
2022/12/10 12:21:14;;;;;;;13.25;7.40;;;;;;;;;;5089522;28;20025;-72
2022/12/10 12:23:44;;;;;;;12.18;7.53;;;;;;;;;;5073918;28;20375;-73
2022/12/10 12:26:13;;;;;;;13.70;8.13;;;;;;;;;;5073795;28;20045;-73
2022/12/10 12:28:44;;;;;;;16.30;8.05;;;;;;;;;;5073461;28;20085;-74
2022/12/10 12:31:14;;;;;;;13.70;8.35;;;;;;;;;;5073815;28;20444;-73
2022/12/10 12:33:59;;;;;;;15.57;9.27;;;;;;;;;;5073737;28;20028;-73
2022/12/10 12:36:31;;;;;;;14.02;8.32;;;;;;;;;;5073733;28;20473;-73
2022/12/10 12:39:13;;;;;;;13.52;8.25;;;;;;;;;;5073116;28;20078;-73
2022/12/10 12:41:42;;;;;;;12.30;7.93;;;;;;;;;;5073459;28;20024;-73
2022/12/10 12:44:29;;;;;;;13.45;8.40;;;;;;;;;;5073067;28;20044;-73
2022/12/10 12:46:56;;;;;;;13.80;8.18;;;;;;;;;;5073413;28;20039;-73
2022/12/10 12:49:34;;;;;;;13.70;8.38;;;;;;;;;;5073305;28;20396;-73
2022/12/10 12:52:03;;;;;;;13.05;8.32;;;;;;;;;;5073479;28;20039;-73
2022/12/10 12:54:29;;;;;;;13.27;8.43;;;;;;;;;;5073043;28;20024;-73
2022/12/10 12:56:56;;;;;;;13.18;7.82;;;;;;;;;;5073425;28;20025;-74
2022/12/10 12:59:28;;;;;;;15.13;9.73;;;;;;;;;;5073168;28;20033;-73
2022/12/10 13:01:58;;;;;;;16.70;9.68;;;;;;;;;;5073256;28;20025;-73
2022/12/10 13:04:24;;;;;;;11.15;7.55;;;;;;;;;;5073136;28;20319;-74
2022/12/10 13:07:09;;;;;;;14.48;9.13;;;;;;;;;;5073004;28;20392;-73
2022/12/10 13:09:43;;;;;;;16.73;9.50;;;;;;;;;;5073058;28;20427;-73
2022/12/10 13:12:15;;;;;;;11.00;7.10;;;;;;;;;;5072655;28;20028;-73
2022/12/10 13:14:51;;;;;;;14.80;8.75;;;;;;;;;;5072786;28;20031;-73
2022/12/10 13:17:43;;;;;;;10.93;7.15;;;;;;;;;;5072972;28;20020;-73
2022/12/10 13:20:28;;;;;;;11.35;7.65;;;;;;;;;;5030689;28;20071;-73
2022/12/10 13:22:57;;;;;;;10.18;6.55;;;;;;;;;;5030484;28;20030;-73
2022/12/10 13:25:43;;;;;;;10.52;8.05;;;;;;;;;;5030529;28;20056;-73
2022/12/10 13:28:28;;;;;;;10.75;7.35;;;;;;;;;;5017550;28;20036;-73
2022/12/10 13:31:16;;;;;;;8.73;6.28;;;;;;;;;;5030502;28;20059;-73
2022/12/10 13:33:48;;;;;;;10.75;6.45;;;;;;;;;;5030433;28;20040;-73
2022/12/10 13:36:20;;;;;;;8.85;6.13;;;;;;;;;;5030661;28;20032;-73
2022/12/10 13:38:46;;;;;;;;;;;;;;;;;;5030473;28;20049;-73
2022/12/10 13:46:54;;;;;;;7.95;5.85;;;;;;;;;;5030380;28;20040;-73
2022/12/10 13:49:30;;;;;;;12.75;9.90;;;;;;;;;;5030462;28;20032;-73
2022/12/10 13:52:07;;;;;;;9.95;6.75;;;;;;;;;;5030428;28;20027;-73
2022/12/10 13:54:34;;;;;;;9.30;6.50;;;;;;;;;;5030122;28;20397;-73
2022/12/10 13:57:03;;;;;;;8.32;6.00;;;;;;;;;;5041455;28;20179;-73
2022/12/10 13:59:29;;;;;;;7.97;5.55;;;;;;;;;;5052032;28;20033;-73
2022/12/10 14:02:03;;;;;;;7.22;5.30;;;;;;;;;;5052180;28;20495;-73
2022/12/10 14:04:33;;;;;;;8.60;5.13;;;;;;;;;;5051930;28;20053;-74
2022/12/10 14:06:59;;;;;;;7.07;5.13;;;;;;;;;;5052136;28;20021;-73
2022/12/10 14:09:27;;;;;;;9.60;6.18;;;;;;;;;;5051636;28;21126;-73
2022/12/10 14:11:57;;;;;;;8.07;5.18;;;;;;;;;;5067764;28;20025;-73
2022/12/10 14:14:26;;;;;;;6.75;5.18;;;;;;;;;;5052389;28;20037;-73
2022/12/10 14:16:52;;;;;;;7.40;5.32;;;;;;;;;;5052149;28;20023;-73
2022/12/10 14:19:18;;;;;;;7.93;5.57;;;;;;;;;;5051888;28;20397;-73
2022/12/10 14:21:46;;;;;;;8.45;5.28;;;;;;;;;;5070457;28;20031;-74
2022/12/10 14:24:31;;;;;;;9.13;5.50;;;;;;;;;;5071413;28;20036;-73
2022/12/10 14:27:04;;;;;;;7.45;5.40;;;;;;;;;;5071950;28;20020;-73
2022/12/10 14:29:30;;;;;;;7.15;5.20;;;;;;;;;;5071862;28;20017;-73
2022/12/10 14:31:57;;;;;;;8.60;6.20;;;;;;;;;;5071766;28;20031;-73
2022/12/10 14:34:25;;;;;;;9.07;6.35;;;;;;;;;;5071762;28;20039;-73
2022/12/10 14:36:53;;;;;;;8.10;5.68;;;;;;;;;;5071612;28;20047;-73
2022/12/10 14:39:26;;;;;;;8.50;6.00;;;;;;;;;;5071374;28;20489;-74
2022/12/10 14:41:53;;;;;;;10.85;5.80;;;;;;;;;;5071665;28;20392;-73
2022/12/10 14:44:20;;;;;;;7.82;5.75;;;;;;;;;;5071611;28;20025;-74
2022/12/10 14:46:50;;;;;;;9.25;6.10;;;;;;;;;;5070433;28;20048;-73
2022/12/10 14:49:26;;;;;;;9.88;6.57;;;;;;;;;;5071508;28;20028;-74
2022/12/10 14:51:52;;;;;;;9.43;6.18;;;;;;;;;;5071684;28;20029;-74
2022/12/10 14:54:33;;;;;;;10.27;7.60;;;;;;;;;;5071533;28;20443;-73
2022/12/10 14:57:07;;;;;;;11.82;7.13;;;;;;;;;;5072094;28;20021;-73
2022/12/10 14:59:49;;;;;;;12.35;8.02;;;;;;;;;;5087378;28;20029;-73